createdAt,value
2019-05-18T00:02:11.871Z,82.24
2019-05-18T00:04:40.094Z,82.15
2019-05-18T00:07:08.327Z,82.22
2019-05-18T00:09:36.557Z,82.28
2019-05-18T00:12:04.785Z,82.42
2019-05-18T00:14:32.993Z,82.50
2019-05-18T00:17:01.228Z,82.43
2019-05-18T00:19:29.459Z,82.45
2019-05-18T00:21:57.670Z,82.43
2019-05-18T00:24:25.896Z,82.49
2019-05-18T00:26:54.107Z,82.66
2019-05-18T00:29:22.390Z,82.64
2019-05-18T00:31:50.627Z,82.50
2019-05-18T00:34:18.866Z,82.39
2019-05-18T00:36:47.082Z,82.31
2019-05-18T00:39:15.297Z,82.29
2019-05-18T00:41:45.454Z,82.29
2019-05-18T00:44:13.508Z,82.37
2019-05-18T00:46:41.732Z,82.47
2019-05-18T00:49:09.946Z,82.61
2019-05-18T00:51:38.164Z,82.78
2019-05-18T00:54:06.386Z,82.81
2019-05-18T00:56:34.669Z,82.83
2019-05-18T00:59:02.897Z,82.78
2019-05-18T01:01:31.117Z,82.77
2019-05-18T01:03:59.352Z,82.76
2019-05-18T01:06:27.601Z,82.92
2019-05-18T01:08:55.812Z,83.12
2019-05-18T01:11:24.022Z,83.20
2019-05-18T01:13:52.243Z,83.26
2019-05-18T01:16:20.465Z,83.17
2019-05-18T01:18:48.679Z,83.10
2019-05-18T01:21:16.914Z,83.09
2019-05-18T01:23:45.140Z,83.08
2019-05-18T01:26:13.446Z,83.12
2019-05-18T01:28:41.680Z,83.02
2019-05-18T01:31:09.989Z,83.14
2019-05-18T01:33:38.204Z,83.30
2019-05-18T01:36:06.436Z,83.48
2019-05-18T01:38:34.661Z,83.65
2019-05-18T01:41:02.910Z,83.85
2019-05-18T01:43:31.104Z,83.92
2019-05-18T01:45:59.352Z,84.04
2019-05-18T01:48:27.561Z,84.19
2019-05-18T01:50:55.779Z,84.20
2019-05-18T01:53:24.092Z,84.25
2019-05-18T01:55:52.315Z,84.38
2019-05-18T01:58:20.526Z,84.46
2019-05-18T02:00:48.760Z,84.44
2019-05-18T02:03:17.002Z,84.42
2019-05-18T02:05:45.236Z,84.33
2019-05-18T02:08:13.448Z,84.24
2019-05-18T02:10:41.665Z,84.09
2019-05-18T02:13:09.917Z,84.02
2019-05-18T02:15:38.181Z,83.94
2019-05-18T02:18:06.378Z,83.92
2019-05-18T02:20:34.601Z,83.83
2019-05-18T02:23:02.839Z,83.82
2019-05-18T02:25:31.062Z,83.86
2019-05-18T02:27:59.277Z,83.85
2019-05-18T02:30:27.501Z,83.85
2019-05-18T02:32:55.709Z,83.90
2019-05-18T02:35:23.923Z,84.01
2019-05-18T02:37:52.147Z,84.15
2019-05-18T02:40:20.373Z,84.32
2019-05-18T02:42:48.582Z,84.47
2019-05-18T02:45:16.797Z,84.62
2019-05-18T02:47:45.030Z,84.77
2019-05-18T02:50:13.362Z,84.90
2019-05-18T02:52:41.597Z,84.93
2019-05-18T02:55:10.496Z,84.99
2019-05-18T02:57:38.702Z,85.14
2019-05-18T03:00:10.096Z,85.12
2019-05-18T03:02:38.317Z,85.21
2019-05-18T03:05:06.920Z,85.35
2019-05-18T03:07:35.132Z,85.30
2019-05-18T03:10:04.642Z,85.29
2019-05-18T03:12:32.881Z,85.40
2019-05-18T03:15:01.089Z,85.44
2019-05-18T03:17:29.306Z,85.65
2019-05-18T03:19:57.542Z,85.62
2019-05-18T03:22:25.795Z,85.63
2019-05-18T03:24:54.023Z,85.67
2019-05-18T03:27:22.230Z,85.76
2019-05-18T03:29:50.560Z,85.84
2019-05-18T03:32:19.388Z,85.84
2019-05-18T03:34:47.618Z,85.81
2019-05-18T03:37:15.856Z,85.87
2019-05-18T03:39:44.104Z,85.87
2019-05-18T03:42:12.326Z,85.81
2019-05-18T03:44:40.537Z,85.73
2019-05-18T03:47:08.760Z,85.75
2019-05-18T03:49:37.003Z,85.64
2019-05-18T03:52:05.227Z,85.43
2019-05-18T03:54:33.426Z,85.25
2019-05-18T03:57:01.653Z,85.17
2019-05-18T03:59:29.879Z,85.12
2019-05-18T04:01:58.117Z,85.09
2019-05-18T04:04:26.350Z,84.92
2019-05-18T04:06:54.565Z,84.77
2019-05-18T04:09:22.787Z,84.71
2019-05-18T04:11:51.100Z,84.51
2019-05-18T04:14:20.066Z,84.26
2019-05-18T04:16:48.308Z,83.58
2019-05-18T04:19:16.564Z,83.22
2019-05-18T04:21:44.777Z,82.37
2019-05-18T04:24:13.000Z,82.17
2019-05-18T04:26:41.260Z,82.23
2019-05-18T04:29:09.448Z,82.31
2019-05-18T04:31:37.709Z,82.36
2019-05-18T04:34:06.033Z,82.41
2019-05-18T04:36:34.258Z,82.49
2019-05-18T04:39:02.534Z,82.49
2019-05-18T04:41:30.711Z,81.99
2019-05-18T04:43:58.940Z,81.62
2019-05-18T04:46:27.275Z,80.55
2019-05-18T04:48:55.457Z,79.35
2019-05-18T04:51:23.697Z,79.27
2019-05-18T04:53:51.914Z,79.30
2019-05-18T04:56:20.150Z,79.29
2019-05-18T04:58:48.355Z,79.48
2019-05-18T05:01:16.571Z,79.30
2019-05-18T05:03:44.886Z,79.21
2019-05-18T05:06:13.175Z,79.16
2019-05-18T05:08:41.395Z,79.03
2019-05-18T05:11:09.625Z,78.58
2019-05-18T05:13:37.865Z,77.27
2019-05-18T05:16:06.080Z,75.75
2019-05-18T05:18:34.309Z,74.16
2019-05-18T05:21:02.539Z,72.85
2019-05-18T05:23:30.770Z,71.54
2019-05-18T05:25:58.999Z,70.54
2019-05-18T05:28:27.199Z,70.43
2019-05-18T05:30:55.426Z,70.47
2019-05-18T05:33:23.639Z,70.96
2019-05-18T05:35:51.865Z,71.30
2019-05-18T05:38:20.122Z,71.04
2019-05-18T05:40:48.312Z,71.09
2019-05-18T05:43:16.555Z,70.68
2019-05-18T05:45:44.806Z,70.00
2019-05-18T05:48:13.040Z,67.84
2019-05-18T05:50:41.254Z,65.39
2019-05-18T05:53:09.486Z,62.24
2019-05-18T05:55:37.747Z,60.64
2019-05-18T05:58:05.917Z,59.38
2019-05-18T06:00:34.137Z,58.05
2019-05-18T06:03:02.367Z,57.79
2019-05-18T06:05:30.587Z,57.37
2019-05-18T06:07:58.797Z,57.01
2019-05-18T06:10:27.074Z,57.86
2019-05-18T06:12:55.330Z,58.42
2019-05-18T06:15:23.486Z,58.67
2019-05-18T06:17:51.724Z,59.58
2019-05-18T06:20:19.932Z,60.69
2019-05-18T06:22:48.147Z,61.11
2019-05-18T06:25:16.425Z,60.83
2019-05-18T06:27:44.599Z,61.16
2019-05-18T06:30:12.809Z,61.18
2019-05-18T06:32:41.037Z,61.23
2019-05-18T06:35:09.292Z,61.23
2019-05-18T06:37:37.504Z,60.96
2019-05-18T06:40:07.568Z,60.41
2019-05-18T06:42:35.862Z,59.78
2019-05-18T06:45:06.329Z,59.17
2019-05-18T06:47:34.548Z,58.95
2019-05-18T06:50:03.282Z,58.50
2019-05-18T06:52:31.498Z,58.62
2019-05-18T06:54:59.708Z,58.55
2019-05-18T06:57:27.943Z,58.36
2019-05-18T06:59:56.188Z,58.11
2019-05-18T07:02:24.423Z,57.78
2019-05-18T07:04:52.631Z,57.83
2019-05-18T07:07:20.870Z,58.27
2019-05-18T07:09:49.095Z,58.26
2019-05-18T07:12:17.344Z,58.12
2019-05-18T07:14:45.589Z,57.56
2019-05-18T07:17:13.791Z,57.68
2019-05-18T07:19:42.055Z,57.23
2019-05-18T07:22:10.278Z,57.13
2019-05-18T07:24:38.519Z,56.89
2019-05-18T07:27:06.803Z,56.66
2019-05-18T07:29:35.070Z,56.52
2019-05-18T07:32:03.269Z,55.82
2019-05-18T07:34:31.485Z,55.36
2019-05-18T07:36:59.706Z,55.44
2019-05-18T07:39:27.997Z,55.14
2019-05-18T07:41:56.219Z,54.79
2019-05-18T07:44:24.442Z,54.43
2019-05-18T07:46:52.738Z,53.68
2019-05-18T07:49:20.947Z,53.39
2019-05-18T07:51:49.176Z,53.82
2019-05-18T07:54:17.396Z,53.58
2019-05-18T07:56:45.627Z,53.58
2019-05-18T07:59:13.882Z,53.20
2019-05-18T08:01:42.118Z,52.57
2019-05-18T08:04:10.336Z,52.40
2019-05-18T08:06:38.627Z,51.73
2019-05-18T08:09:07.901Z,51.53
2019-05-18T08:11:36.204Z,51.58
2019-05-18T08:14:04.417Z,51.14
2019-05-18T08:16:32.644Z,51.05
2019-05-18T08:19:00.863Z,50.08
2019-05-18T08:21:29.109Z,49.63
2019-05-18T08:23:57.318Z,49.36
2019-05-18T08:26:25.587Z,49.28
2019-05-18T08:28:53.805Z,49.01
2019-05-18T08:31:22.027Z,47.91
2019-05-18T08:33:50.253Z,47.15
2019-05-18T08:36:18.550Z,46.49
2019-05-18T08:38:46.755Z,46.36
2019-05-18T08:41:14.979Z,46.22
2019-05-18T08:43:43.218Z,45.45
2019-05-18T08:46:11.433Z,45.43
2019-05-18T08:48:39.751Z,45.12
2019-05-18T08:51:07.987Z,45.25
2019-05-18T08:53:36.204Z,45.21
2019-05-18T08:56:04.422Z,44.93
2019-05-18T08:58:32.659Z,45.18
2019-05-18T09:01:00.873Z,44.98
2019-05-18T09:03:29.106Z,45.12
2019-05-18T09:05:57.343Z,44.76
2019-05-18T09:08:25.543Z,44.57
2019-05-18T09:10:53.780Z,43.96
2019-05-18T09:13:22.031Z,43.82
2019-05-18T09:15:50.499Z,43.58
2019-05-18T09:18:18.785Z,43.13
2019-05-18T09:20:47.116Z,42.67
2019-05-18T09:23:15.331Z,42.31
2019-05-18T09:25:43.545Z,42.31
2019-05-18T09:28:11.775Z,42.36
2019-05-18T09:30:41.380Z,41.61
2019-05-18T09:33:09.693Z,41.48
2019-05-18T09:35:37.909Z,41.36
2019-05-18T09:38:06.124Z,41.34
2019-05-18T09:40:34.343Z,40.92
2019-05-18T09:43:02.613Z,40.27
2019-05-18T09:45:30.828Z,39.53
2019-05-18T09:47:59.043Z,39.21
2019-05-18T09:50:27.358Z,39.14
2019-05-18T09:52:55.567Z,39.85
2019-05-18T09:55:23.780Z,40.43
2019-05-18T09:57:52.008Z,40.45
2019-05-18T10:00:21.872Z,40.00
2019-05-18T10:02:51.767Z,39.98
2019-05-18T10:05:20.304Z,39.73
2019-05-18T10:07:48.716Z,40.18
2019-05-18T10:10:16.915Z,40.42
2019-05-18T10:12:45.152Z,40.52
2019-05-18T10:15:13.890Z,40.87
2019-05-18T10:17:42.115Z,40.93
2019-05-18T10:20:10.332Z,40.89
2019-05-18T10:22:53.101Z,40.49
2019-05-18T10:25:08.533Z,40.38
2019-05-18T10:27:36.736Z,39.90
2019-05-18T10:30:07.001Z,39.13
2019-05-18T10:32:35.181Z,39.02
2019-05-18T10:35:05.759Z,39.18
2019-05-18T10:37:34.086Z,38.92
2019-05-18T10:40:02.785Z,38.60
2019-05-18T10:42:31.070Z,38.60
2019-05-18T10:44:59.332Z,38.77
2019-05-18T10:47:27.555Z,38.87
2019-05-18T10:49:55.770Z,38.30
2019-05-18T10:52:24.018Z,38.13
2019-05-18T10:54:52.224Z,38.19
2019-05-18T10:57:20.421Z,37.76
2019-05-18T10:59:48.736Z,37.65
2019-05-18T11:02:16.965Z,37.53
2019-05-18T11:04:45.190Z,37.62
2019-05-18T11:07:13.415Z,37.66
2019-05-18T11:09:41.821Z,37.61
2019-05-18T11:12:10.024Z,37.53
2019-05-18T11:14:38.261Z,37.58
2019-05-18T11:17:06.449Z,37.59
2019-05-18T11:19:34.673Z,37.67
2019-05-18T11:22:02.886Z,37.87
2019-05-18T11:24:31.120Z,37.84
2019-05-18T11:26:59.331Z,37.51
2019-05-18T11:29:27.599Z,37.26
2019-05-18T11:31:55.872Z,36.86
2019-05-18T11:34:24.126Z,36.51
2019-05-18T11:36:52.365Z,36.29
2019-05-18T11:39:20.584Z,35.94
2019-05-18T11:41:48.790Z,35.82
2019-05-18T11:44:17.050Z,36.14
2019-05-18T11:46:45.253Z,35.66
2019-05-18T11:49:13.510Z,35.62
2019-05-18T11:51:41.750Z,35.52
2019-05-18T11:54:09.964Z,35.56
2019-05-18T11:56:38.187Z,35.39
2019-05-18T11:59:06.436Z,35.55
2019-05-18T12:01:34.647Z,35.36
2019-05-18T12:04:02.862Z,35.10
2019-05-18T12:06:31.107Z,34.85
2019-05-18T12:08:59.327Z,34.90
2019-05-18T12:11:27.599Z,35.15
2019-05-18T12:13:55.756Z,35.37
2019-05-18T12:16:24.001Z,34.61
2019-05-18T12:18:52.237Z,34.23
2019-05-18T12:21:20.446Z,34.74
2019-05-18T12:23:48.654Z,34.54
2019-05-18T12:26:16.871Z,34.65
2019-05-18T12:28:45.352Z,34.64
2019-05-18T12:31:13.568Z,35.00
2019-05-18T12:33:41.793Z,35.28
2019-05-18T12:36:10.056Z,35.43
2019-05-18T12:38:38.285Z,35.29
2019-05-18T12:41:06.566Z,35.27
2019-05-18T12:43:34.780Z,35.16
2019-05-18T12:46:03.021Z,34.87
2019-05-18T12:48:31.229Z,34.47
2019-05-18T12:50:59.446Z,34.64
2019-05-18T12:53:27.707Z,34.25
2019-05-18T12:55:55.914Z,33.10
2019-05-18T12:58:24.136Z,32.83
2019-05-18T13:00:52.434Z,32.67
2019-05-18T13:03:20.669Z,32.79
2019-05-18T13:05:48.877Z,32.45
2019-05-18T13:08:17.099Z,32.16
2019-05-18T13:10:45.323Z,31.96
2019-05-18T13:13:13.617Z,31.76
2019-05-18T13:15:41.813Z,31.71
2019-05-18T13:18:10.015Z,31.67
2019-05-18T13:20:38.291Z,31.55
2019-05-18T13:23:06.496Z,31.07
2019-05-18T13:25:34.709Z,30.78
2019-05-18T13:28:02.945Z,30.39
2019-05-18T13:30:31.150Z,30.32
2019-05-18T13:32:59.364Z,30.40
2019-05-18T13:35:28.390Z,30.29
2019-05-18T13:37:56.603Z,30.01
2019-05-18T13:40:24.820Z,29.63
2019-05-18T13:42:53.053Z,28.92
2019-05-18T13:45:21.332Z,28.29
2019-05-18T13:47:49.565Z,28.08
2019-05-18T13:50:17.921Z,28.61
2019-05-18T13:52:46.153Z,28.81
2019-05-18T13:55:14.379Z,28.85
2019-05-18T13:57:42.619Z,28.56
2019-05-18T14:00:10.849Z,28.17
2019-05-18T14:02:39.107Z,28.61
2019-05-18T14:05:08.341Z,29.00
2019-05-18T14:07:36.578Z,28.76
2019-05-18T14:10:07.686Z,28.37
2019-05-18T14:12:35.886Z,28.28
2019-05-18T14:15:05.750Z,28.14
2019-05-18T14:17:34.017Z,28.34
2019-05-18T14:20:02.245Z,28.67
2019-05-18T14:22:30.431Z,28.78
2019-05-18T14:24:58.647Z,28.85
2019-05-18T14:27:26.869Z,29.33
2019-05-18T14:29:55.092Z,29.00
2019-05-18T14:32:23.350Z,29.24
2019-05-18T14:34:51.563Z,29.23
2019-05-18T14:37:19.772Z,29.01
2019-05-18T14:39:47.992Z,29.19
2019-05-18T14:42:16.196Z,29.15
2019-05-18T14:44:44.412Z,29.20
2019-05-18T14:47:12.613Z,29.13
2019-05-18T14:49:40.831Z,29.24
2019-05-18T14:52:11.971Z,29.34
2019-05-18T14:54:38.980Z,29.35
2019-05-18T14:57:07.258Z,29.28
2019-05-18T14:59:35.489Z,29.26
2019-05-18T15:02:03.735Z,28.89
2019-05-18T15:04:32.000Z,29.03
2019-05-18T15:07:00.215Z,29.21
2019-05-18T15:09:28.453Z,29.37
2019-05-18T15:11:56.653Z,29.23
2019-05-18T15:14:24.863Z,29.23
2019-05-18T15:16:53.306Z,28.81
2019-05-18T15:19:21.593Z,29.06
2019-05-18T15:21:49.790Z,28.89
2019-05-18T15:24:18.011Z,28.83
2019-05-18T15:26:46.259Z,28.91
2019-05-18T15:29:14.469Z,28.93
2019-05-18T15:31:42.887Z,28.95
2019-05-18T15:34:11.107Z,29.02
2019-05-18T15:36:39.311Z,29.00
2019-05-18T15:39:07.583Z,29.07
2019-05-18T15:41:35.793Z,29.08
2019-05-18T15:44:04.014Z,28.93
2019-05-18T15:46:32.218Z,29.04
2019-05-18T15:49:00.606Z,29.18
2019-05-18T15:51:28.879Z,29.48
2019-05-18T15:53:57.117Z,29.86
2019-05-18T15:56:25.321Z,30.07
2019-05-18T15:58:53.526Z,31.60
2019-05-18T16:01:21.753Z,34.50
2019-05-18T16:03:49.961Z,36.25
2019-05-18T16:06:18.214Z,37.59
2019-05-18T16:08:46.427Z,38.76
2019-05-18T16:11:14.657Z,39.89
2019-05-18T16:13:42.906Z,40.49
2019-05-18T16:16:11.137Z,41.25
2019-05-18T16:18:39.343Z,41.58
2019-05-18T16:21:07.561Z,41.96
2019-05-18T16:23:35.770Z,42.17
2019-05-18T16:26:04.002Z,42.33
2019-05-18T16:28:32.243Z,42.40
2019-05-18T16:31:00.575Z,42.55
2019-05-18T16:33:28.787Z,42.72
2019-05-18T16:35:57.007Z,42.91
2019-05-18T16:38:25.257Z,43.10
2019-05-18T16:40:53.484Z,43.29
2019-05-18T16:43:21.699Z,43.29
2019-05-18T16:45:49.932Z,43.63
2019-05-18T16:48:18.157Z,43.52
2019-05-18T16:50:46.652Z,43.50
2019-05-18T16:53:15.589Z,43.62
2019-05-18T16:55:43.905Z,43.55
2019-05-18T16:58:12.119Z,43.62
2019-05-18T17:00:40.338Z,43.50
2019-05-18T17:03:08.567Z,43.69
2019-05-18T17:05:36.992Z,43.73
2019-05-18T17:08:05.727Z,44.05
2019-05-18T17:10:34.008Z,44.29
2019-05-18T17:13:02.244Z,44.39
2019-05-18T17:15:30.468Z,44.47
2019-05-18T17:17:58.844Z,44.52
2019-05-18T17:20:27.814Z,44.98
2019-05-18T17:22:56.076Z,45.51
2019-05-18T17:25:24.505Z,45.91
2019-05-18T17:27:52.705Z,46.09
2019-05-18T17:30:21.009Z,46.28
2019-05-18T17:32:49.214Z,46.69
2019-05-18T17:35:17.452Z,47.10
2019-05-18T17:37:45.680Z,47.28
2019-05-18T17:40:14.071Z,47.72
2019-05-18T17:42:42.289Z,48.40
2019-05-18T17:45:10.514Z,48.71
2019-05-18T17:47:38.784Z,48.87
2019-05-18T17:50:10.424Z,49.15
2019-05-18T17:52:38.659Z,49.30
2019-05-18T17:55:06.960Z,49.52
2019-05-18T17:57:35.177Z,49.81
2019-05-18T18:00:04.953Z,50.06
2019-05-18T18:02:33.450Z,50.28
2019-05-18T18:05:01.678Z,50.38
2019-05-18T18:07:29.933Z,50.57
2019-05-18T18:09:58.161Z,50.67
2019-05-18T18:12:26.364Z,50.82
2019-05-18T18:14:54.585Z,51.00
2019-05-18T18:17:22.832Z,51.28
2019-05-18T18:19:51.104Z,51.58
2019-05-18T18:22:19.278Z,51.75
2019-05-18T18:24:47.663Z,51.97
2019-05-18T18:27:24.739Z,52.59
2019-05-18T18:29:45.873Z,53.26
2019-05-18T18:32:14.289Z,53.65
2019-05-18T18:34:42.501Z,54.14
2019-05-18T18:37:10.802Z,54.65
2019-05-18T18:39:39.043Z,55.26
2019-05-18T18:42:07.353Z,55.44
2019-05-18T18:44:35.625Z,56.09
2019-05-18T18:47:03.851Z,56.70
2019-05-18T18:49:32.188Z,57.10
2019-05-18T18:52:00.433Z,57.33
2019-05-18T18:54:28.621Z,57.63
2019-05-18T18:56:56.910Z,58.17
2019-05-18T18:59:25.193Z,58.52
2019-05-18T19:01:53.411Z,58.71
2019-05-18T19:04:21.648Z,58.79
2019-05-18T19:06:49.871Z,59.06
2019-05-18T19:09:18.088Z,59.08
2019-05-18T19:11:46.358Z,59.47
2019-05-18T19:14:14.590Z,59.89
2019-05-18T19:16:42.801Z,60.33
2019-05-18T19:19:11.018Z,60.63
2019-05-18T19:21:39.257Z,61.07
2019-05-18T19:24:07.483Z,61.16
2019-05-18T19:26:35.824Z,61.78
2019-05-18T19:29:04.030Z,61.90
2019-05-18T19:31:32.341Z,61.91
2019-05-18T19:34:00.567Z,62.21
2019-05-18T19:36:28.799Z,62.26
2019-05-18T19:38:57.037Z,62.60
2019-05-18T19:41:25.928Z,62.87
2019-05-18T19:43:54.754Z,63.24
2019-05-18T19:46:22.961Z,63.14
2019-05-18T19:48:51.188Z,63.70
2019-05-18T19:51:19.582Z,63.65
2019-05-18T19:53:47.847Z,63.79
2019-05-18T19:56:16.063Z,63.96
2019-05-18T19:58:44.324Z,63.93
2019-05-18T20:01:12.891Z,64.14
2019-05-18T20:03:41.066Z,64.12
2019-05-18T20:06:09.334Z,64.20
2019-05-18T20:08:37.568Z,64.20
2019-05-18T20:11:06.225Z,64.18
2019-05-18T20:13:34.466Z,64.21
2019-05-18T20:16:02.957Z,64.42
2019-05-18T20:18:31.260Z,64.76
2019-05-18T20:20:59.512Z,64.76
2019-05-18T20:23:27.739Z,65.08
2019-05-18T20:25:55.954Z,65.36
2019-05-18T20:28:24.459Z,65.57
2019-05-18T20:30:52.711Z,65.85
2019-05-18T20:33:20.984Z,65.96
2019-05-18T20:35:49.183Z,66.00
2019-05-18T20:38:17.401Z,66.39
2019-05-18T20:40:45.673Z,66.34
2019-05-18T20:43:14.008Z,66.34
2019-05-18T20:45:42.274Z,66.51
2019-05-18T20:48:10.519Z,66.56
2019-05-18T20:50:38.740Z,66.67
2019-05-18T20:53:06.986Z,66.96
2019-05-18T20:55:35.207Z,66.97
2019-05-18T20:58:03.455Z,67.09
2019-05-18T21:00:31.651Z,67.11
2019-05-18T21:02:59.906Z,67.32
2019-05-18T21:05:28.113Z,67.65
2019-05-18T21:07:56.340Z,67.65
2019-05-18T21:10:24.582Z,68.00
2019-05-18T21:12:52.876Z,68.06
2019-05-18T21:15:21.043Z,68.41
2019-05-18T21:17:49.278Z,68.58
2019-05-18T21:20:17.512Z,68.66
2019-05-18T21:22:45.776Z,68.82
2019-05-18T21:25:14.064Z,68.95
2019-05-18T21:27:42.322Z,69.06
2019-05-18T21:30:10.562Z,69.16
2019-05-18T21:32:38.793Z,69.29
2019-05-18T21:35:07.416Z,69.53
2019-05-18T21:37:35.591Z,69.60
2019-05-18T21:40:05.466Z,69.62
2019-05-18T21:42:33.670Z,69.81
2019-05-18T21:45:02.247Z,69.78
2019-05-18T21:47:30.643Z,69.86
2019-05-18T21:49:59.048Z,69.94
2019-05-18T21:52:27.265Z,69.99
2019-05-18T21:54:55.522Z,70.29
2019-05-18T21:57:23.880Z,70.46
2019-05-18T21:59:52.211Z,70.46
2019-05-18T22:02:20.430Z,70.63
2019-05-18T22:04:48.666Z,70.64
2019-05-18T22:07:16.901Z,70.73
2019-05-18T22:09:45.118Z,70.88
2019-05-18T22:12:13.556Z,70.96
2019-05-18T22:14:41.785Z,71.12
2019-05-18T22:17:09.988Z,71.34
2019-05-18T22:19:38.201Z,71.60
2019-05-18T22:22:06.441Z,71.63
2019-05-18T22:24:34.851Z,71.81
2019-05-18T22:27:03.073Z,71.90
2019-05-18T22:29:31.302Z,71.94
2019-05-18T22:31:59.558Z,72.10
2019-05-18T22:34:27.768Z,72.23
2019-05-18T22:36:56.020Z,72.34
2019-05-18T22:39:26.661Z,72.38
2019-05-18T22:41:54.149Z,72.44
2019-05-18T22:44:22.384Z,72.68
2019-05-18T22:46:50.681Z,72.93
2019-05-18T22:49:18.904Z,72.87
2019-05-18T22:51:47.124Z,73.04
2019-05-18T22:54:15.344Z,73.10
2019-05-18T22:56:43.583Z,73.29
2019-05-18T22:59:11.842Z,73.68
2019-05-18T23:01:40.069Z,73.55
2019-05-18T23:04:08.291Z,73.79
2019-05-18T23:06:36.542Z,73.91
2019-05-18T23:09:06.005Z,74.21
2019-05-18T23:11:34.202Z,74.41
2019-05-18T23:14:02.437Z,74.51
2019-05-18T23:16:30.638Z,74.84
2019-05-18T23:18:58.850Z,75.01
2019-05-18T23:21:34.495Z,75.10
2019-05-18T23:24:02.817Z,75.16
2019-05-18T23:26:31.237Z,75.37
2019-05-18T23:28:59.542Z,75.51
2019-05-18T23:31:27.764Z,75.96
2019-05-18T23:33:55.993Z,76.26
2019-05-18T23:36:24.226Z,76.28
2019-05-18T23:38:52.582Z,76.22
2019-05-18T23:41:20.795Z,76.55
2019-05-18T23:43:48.980Z,76.62
2019-05-18T23:46:17.291Z,76.99
2019-05-18T23:48:45.489Z,77.03
2019-05-18T23:51:13.725Z,77.18
2019-05-18T23:53:42.051Z,77.33
2019-05-18T23:56:10.264Z,77.41
2019-05-18T23:58:38.489Z,77.58
